sensor_id;sensor_type;location;lat;lon;timestamp;temperature;humidity
45233;DHT22;30969;51.052;17.056;2022-11-20T00:02:31;0.40;66.00
45233;DHT22;30969;51.052;17.056;2022-11-20T00:07:34;0.40;66.00
45233;DHT22;30969;51.052;17.056;2022-11-20T00:12:40;0.30;66.00
45233;DHT22;30969;51.052;17.056;2022-11-20T00:17:43;0.30;66.10
45233;DHT22;30969;51.052;17.056;2022-11-20T00:22:46;0.20;66.20
45233;DHT22;30969;51.052;17.056;2022-11-20T00:27:51;0.20;66.10
45233;DHT22;30969;51.052;17.056;2022-11-20T00:32:56;0.20;66.20
45233;DHT22;30969;51.052;17.056;2022-11-20T00:38:00;0.20;66.00
45233;DHT22;30969;51.052;17.056;2022-11-20T00:43:05;0.20;65.90
45233;DHT22;30969;51.052;17.056;2022-11-20T00:48:08;0.20;65.90
45233;DHT22;30969;51.052;17.056;2022-11-20T00:53:12;0.10;65.80
45233;DHT22;30969;51.052;17.056;2022-11-20T00:58:17;0.10;65.80
45233;DHT22;30969;51.052;17.056;2022-11-20T01:03:20;0.20;65.90
45233;DHT22;30969;51.052;17.056;2022-11-20T01:08:30;0.10;65.80
45233;DHT22;30969;51.052;17.056;2022-11-20T01:13:36;0.20;65.90
45233;DHT22;30969;51.052;17.056;2022-11-20T01:18:44;0.10;65.80
45233;DHT22;30969;51.052;17.056;2022-11-20T01:23:49;0.10;65.80
45233;DHT22;30969;51.052;17.056;2022-11-20T01:28:55;0.10;65.80
45233;DHT22;30969;51.052;17.056;2022-11-20T01:34:00;0.10;65.80
45233;DHT22;30969;51.052;17.056;2022-11-20T01:39:06;0.10;65.90
45233;DHT22;30969;51.052;17.056;2022-11-20T01:44:14;0.10;66.00
45233;DHT22;30969;51.052;17.056;2022-11-20T01:49:21;0.10;66.00
45233;DHT22;30969;51.052;17.056;2022-11-20T01:54:30;0.10;66.10
45233;DHT22;30969;51.052;17.056;2022-11-20T01:59:38;0.10;65.90
45233;DHT22;30969;51.052;17.056;2022-11-20T02:04:44;0.00;66.00
45233;DHT22;30969;51.052;17.056;2022-11-20T02:09:48;0.00;66.10
45233;DHT22;30969;51.052;17.056;2022-11-20T02:15:00;0.00;66.20
45233;DHT22;30969;51.052;17.056;2022-11-20T02:20:05;0.00;66.20
45233;DHT22;30969;51.052;17.056;2022-11-20T02:25:10;0.00;66.10
45233;DHT22;30969;51.052;17.056;2022-11-20T02:30:14;0.00;66.10
45233;DHT22;30969;51.052;17.056;2022-11-20T02:35:41;-0.10;66.10
45233;DHT22;30969;51.052;17.056;2022-11-20T02:40:46;0.00;66.10
45233;DHT22;30969;51.052;17.056;2022-11-20T02:45:56;-0.10;66.10
45233;DHT22;30969;51.052;17.056;2022-11-20T02:51:00;-0.10;66.40
45233;DHT22;30969;51.052;17.056;2022-11-20T02:56:06;-0.20;66.40
45233;DHT22;30969;51.052;17.056;2022-11-20T03:01:10;-0.10;66.50
45233;DHT22;30969;51.052;17.056;2022-11-20T03:06:13;-0.20;66.40
45233;DHT22;30969;51.052;17.056;2022-11-20T03:11:18;-0.20;66.40
45233;DHT22;30969;51.052;17.056;2022-11-20T03:16:23;-0.20;66.40
45233;DHT22;30969;51.052;17.056;2022-11-20T03:21:27;-0.20;66.50
45233;DHT22;30969;51.052;17.056;2022-11-20T03:26:31;-0.20;66.40
45233;DHT22;30969;51.052;17.056;2022-11-20T03:31:36;-0.20;66.40
45233;DHT22;30969;51.052;17.056;2022-11-20T03:36:42;-0.20;66.40
45233;DHT22;30969;51.052;17.056;2022-11-20T03:41:47;-0.20;66.30
45233;DHT22;30969;51.052;17.056;2022-11-20T03:46:50;-0.20;66.30
45233;DHT22;30969;51.052;17.056;2022-11-20T03:51:54;-0.20;66.20
45233;DHT22;30969;51.052;17.056;2022-11-20T03:56:59;-0.20;66.20
45233;DHT22;30969;51.052;17.056;2022-11-20T04:02:02;-0.20;66.20
45233;DHT22;30969;51.052;17.056;2022-11-20T04:07:06;-0.20;66.10
45233;DHT22;30969;51.052;17.056;2022-11-20T04:12:11;-0.20;66.10
45233;DHT22;30969;51.052;17.056;2022-11-20T04:17:14;-0.30;65.80
45233;DHT22;30969;51.052;17.056;2022-11-20T04:22:17;-0.40;66.00
45233;DHT22;30969;51.052;17.056;2022-11-20T04:27:22;-0.40;66.20
45233;DHT22;30969;51.052;17.056;2022-11-20T04:32:26;-0.50;66.20
45233;DHT22;30969;51.052;17.056;2022-11-20T04:37:29;-0.70;66.60
45233;DHT22;30969;51.052;17.056;2022-11-20T04:42:34;-0.70;66.80
45233;DHT22;30969;51.052;17.056;2022-11-20T04:47:37;-0.60;66.80
45233;DHT22;30969;51.052;17.056;2022-11-20T04:52:40;-0.60;66.70
45233;DHT22;30969;51.052;17.056;2022-11-20T04:57:45;-0.60;66.60
45233;DHT22;30969;51.052;17.056;2022-11-20T05:02:52;-0.60;66.50
45233;DHT22;30969;51.052;17.056;2022-11-20T05:07:56;-0.50;66.40
45233;DHT22;30969;51.052;17.056;2022-11-20T05:13:01;-0.60;66.20
45233;DHT22;30969;51.052;17.056;2022-11-20T05:18:05;-0.60;66.30
45233;DHT22;30969;51.052;17.056;2022-11-20T05:23:09;-0.60;66.30
45233;DHT22;30969;51.052;17.056;2022-11-20T05:28:14;-0.60;66.30
45233;DHT22;30969;51.052;17.056;2022-11-20T05:33:17;-0.60;66.50
45233;DHT22;30969;51.052;17.056;2022-11-20T05:38:21;-0.60;66.30
45233;DHT22;30969;51.052;17.056;2022-11-20T05:43:26;-0.70;66.20
45233;DHT22;30969;51.052;17.056;2022-11-20T05:48:29;-0.70;66.30
45233;DHT22;30969;51.052;17.056;2022-11-20T05:53:34;-0.80;66.40
45233;DHT22;30969;51.052;17.056;2022-11-20T05:58:39;-0.80;66.50
45233;DHT22;30969;51.052;17.056;2022-11-20T06:03:44;-0.80;66.60
45233;DHT22;30969;51.052;17.056;2022-11-20T06:08:50;-0.70;66.60
45233;DHT22;30969;51.052;17.056;2022-11-20T06:13:54;-0.70;66.60
45233;DHT22;30969;51.052;17.056;2022-11-20T06:18:58;-0.80;66.60
45233;DHT22;30969;51.052;17.056;2022-11-20T06:24:02;-0.80;66.70
45233;DHT22;30969;51.052;17.056;2022-11-20T06:29:07;-0.80;66.70
45233;DHT22;30969;51.052;17.056;2022-11-20T06:34:11;-0.80;66.90
45233;DHT22;30969;51.052;17.056;2022-11-20T06:39:14;-0.90;66.90
45233;DHT22;30969;51.052;17.056;2022-11-20T06:44:19;-0.90;67.00
45233;DHT22;30969;51.052;17.056;2022-11-20T06:49:22;-0.90;67.10
45233;DHT22;30969;51.052;17.056;2022-11-20T06:54:27;-0.90;67.10
45233;DHT22;30969;51.052;17.056;2022-11-20T06:59:32;-0.80;67.10
45233;DHT22;30969;51.052;17.056;2022-11-20T07:04:35;-0.80;67.10
45233;DHT22;30969;51.052;17.056;2022-11-20T07:09:39;-0.80;67.20
45233;DHT22;30969;51.052;17.056;2022-11-20T07:14:43;-0.70;67.30
45233;DHT22;30969;51.052;17.056;2022-11-20T07:19:47;-0.70;67.20
45233;DHT22;30969;51.052;17.056;2022-11-20T07:24:50;-0.70;67.20
45233;DHT22;30969;51.052;17.056;2022-11-20T07:29:55;-0.60;67.20
45233;DHT22;30969;51.052;17.056;2022-11-20T07:34:59;-0.60;67.20
45233;DHT22;30969;51.052;17.056;2022-11-20T07:40:03;-0.50;67.40
45233;DHT22;30969;51.052;17.056;2022-11-20T07:45:09;-0.50;67.50
45233;DHT22;30969;51.052;17.056;2022-11-20T07:50:13;-0.50;67.60
45233;DHT22;30969;51.052;17.056;2022-11-20T07:55:17;-0.40;67.70
45233;DHT22;30969;51.052;17.056;2022-11-20T08:00:22;-0.30;67.90
45233;DHT22;30969;51.052;17.056;2022-11-20T08:05:25;-0.30;68.00
45233;DHT22;30969;51.052;17.056;2022-11-20T08:10:29;-0.20;68.00
45233;DHT22;30969;51.052;17.056;2022-11-20T08:15:34;-0.10;68.10
45233;DHT22;30969;51.052;17.056;2022-11-20T08:20:38;0.00;68.30
45233;DHT22;30969;51.052;17.056;2022-11-20T08:25:41;0.10;68.20
45233;DHT22;30969;51.052;17.056;2022-11-20T08:30:46;0.20;68.30
45233;DHT22;30969;51.052;17.056;2022-11-20T08:35:49;0.20;68.20
45233;DHT22;30969;51.052;17.056;2022-11-20T08:40:56;0.30;68.80
45233;DHT22;30969;51.052;17.056;2022-11-20T08:46:19;0.40;68.40
45233;DHT22;30969;51.052;17.056;2022-11-20T08:51:22;0.40;68.20
45233;DHT22;30969;51.052;17.056;2022-11-20T08:56:26;0.50;68.30
45233;DHT22;30969;51.052;17.056;2022-11-20T09:01:31;0.60;68.40
45233;DHT22;30969;51.052;17.056;2022-11-20T09:06:34;0.70;68.30
45233;DHT22;30969;51.052;17.056;2022-11-20T09:11:38;0.80;68.30
45233;DHT22;30969;51.052;17.056;2022-11-20T09:16:44;0.80;68.20
45233;DHT22;30969;51.052;17.056;2022-11-20T09:21:48;0.90;68.20
45233;DHT22;30969;51.052;17.056;2022-11-20T09:26:51;1.00;68.10
45233;DHT22;30969;51.052;17.056;2022-11-20T09:31:56;1.10;68.00
45233;DHT22;30969;51.052;17.056;2022-11-20T09:36:59;1.20;68.00
45233;DHT22;30969;51.052;17.056;2022-11-20T09:42:19;1.20;67.80
45233;DHT22;30969;51.052;17.056;2022-11-20T09:47:37;1.40;67.80
45233;DHT22;30969;51.052;17.056;2022-11-20T09:52:51;1.50;67.70
45233;DHT22;30969;51.052;17.056;2022-11-20T09:57:57;1.60;67.60
45233;DHT22;30969;51.052;17.056;2022-11-20T10:03:10;1.70;67.70
45233;DHT22;30969;51.052;17.056;2022-11-20T10:08:19;1.80;67.60
45233;DHT22;30969;51.052;17.056;2022-11-20T10:13:33;1.90;67.50
45233;DHT22;30969;51.052;17.056;2022-11-20T10:18:54;2.10;67.40
45233;DHT22;30969;51.052;17.056;2022-11-20T10:24:11;2.20;67.40
45233;DHT22;30969;51.052;17.056;2022-11-20T10:29:26;2.30;68.20
45233;DHT22;30969;51.052;17.056;2022-11-20T10:34:41;2.40;67.20
45233;DHT22;30969;51.052;17.056;2022-11-20T10:39:50;2.60;67.00
45233;DHT22;30969;51.052;17.056;2022-11-20T10:45:01;2.70;66.80
45233;DHT22;30969;51.052;17.056;2022-11-20T10:50:14;2.80;66.40
45233;DHT22;30969;51.052;17.056;2022-11-20T10:55:30;2.90;66.30
45233;DHT22;30969;51.052;17.056;2022-11-20T11:00:36;3.00;66.10
45233;DHT22;30969;51.052;17.056;2022-11-20T11:05:46;3.10;65.60
45233;DHT22;30969;51.052;17.056;2022-11-20T11:10:54;3.20;65.60
45233;DHT22;30969;51.052;17.056;2022-11-20T11:15:59;3.40;65.60
45233;DHT22;30969;51.052;17.056;2022-11-20T11:21:05;3.50;65.60
45233;DHT22;30969;51.052;17.056;2022-11-20T11:26:19;3.60;65.10
45233;DHT22;30969;51.052;17.056;2022-11-20T11:31:24;3.70;64.10
45233;DHT22;30969;51.052;17.056;2022-11-20T11:36:29;3.60;61.90
45233;DHT22;30969;51.052;17.056;2022-11-20T11:41:34;3.30;61.90
45233;DHT22;30969;51.052;17.056;2022-11-20T11:46:39;3.10;62.30
45233;DHT22;30969;51.052;17.056;2022-11-20T11:52:03;3.10;61.50
45233;DHT22;30969;51.052;17.056;2022-11-20T11:57:14;3.20;62.90
45233;DHT22;30969;51.052;17.056;2022-11-20T12:02:29;3.20;61.60
45233;DHT22;30969;51.052;17.056;2022-11-20T12:07:41;3.40;61.30
45233;DHT22;30969;51.052;17.056;2022-11-20T12:12:53;3.50;62.10
45233;DHT22;30969;51.052;17.056;2022-11-20T12:17:59;3.60;61.20
45233;DHT22;30969;51.052;17.056;2022-11-20T12:23:11;3.80;60.40
45233;DHT22;30969;51.052;17.056;2022-11-20T12:28:38;3.90;60.10
45233;DHT22;30969;51.052;17.056;2022-11-20T12:33:54;3.90;60.00
45233;DHT22;30969;51.052;17.056;2022-11-20T12:39:12;4.20;61.10
45233;DHT22;30969;51.052;17.056;2022-11-20T12:44:40;4.50;61.50
45233;DHT22;30969;51.052;17.056;2022-11-20T12:50:10;4.80;61.40
45233;DHT22;30969;51.052;17.056;2022-11-20T12:55:23;5.10;61.30
45233;DHT22;30969;51.052;17.056;2022-11-20T13:00:29;5.30;61.10
45233;DHT22;30969;51.052;17.056;2022-11-20T13:05:46;5.50;60.80
45233;DHT22;30969;51.052;17.056;2022-11-20T13:10:59;5.60;60.30
45233;DHT22;30969;51.052;17.056;2022-11-20T13:16:07;5.80;59.90
45233;DHT22;30969;51.052;17.056;2022-11-20T13:21:17;5.90;59.70
45233;DHT22;30969;51.052;17.056;2022-11-20T13:26:23;6.00;59.10
45233;DHT22;30969;51.052;17.056;2022-11-20T13:31:31;6.00;58.80
45233;DHT22;30969;51.052;17.056;2022-11-20T13:36:35;6.00;58.50
45233;DHT22;30969;51.052;17.056;2022-11-20T13:41:40;6.00;58.20
45233;DHT22;30969;51.052;17.056;2022-11-20T13:46:46;6.00;57.80
45233;DHT22;30969;51.052;17.056;2022-11-20T13:51:51;5.90;57.70
45233;DHT22;30969;51.052;17.056;2022-11-20T13:57:06;5.80;57.40
45233;DHT22;30969;51.052;17.056;2022-11-20T14:02:18;5.70;57.40
45233;DHT22;30969;51.052;17.056;2022-11-20T14:07:25;5.60;57.20
45233;DHT22;30969;51.052;17.056;2022-11-20T14:12:33;5.60;57.20
45233;DHT22;30969;51.052;17.056;2022-11-20T14:17:38;5.50;57.10
45233;DHT22;30969;51.052;17.056;2022-11-20T14:22:48;5.40;57.10
45233;DHT22;30969;51.052;17.056;2022-11-20T14:27:54;5.30;57.10
45233;DHT22;30969;51.052;17.056;2022-11-20T14:33:02;5.20;57.10
45233;DHT22;30969;51.052;17.056;2022-11-20T14:38:10;5.10;57.20
45233;DHT22;30969;51.052;17.056;2022-11-20T14:43:22;5.00;57.30
45233;DHT22;30969;51.052;17.056;2022-11-20T14:48:30;4.90;57.20
45233;DHT22;30969;51.052;17.056;2022-11-20T14:53:35;4.90;57.20
45233;DHT22;30969;51.052;17.056;2022-11-20T14:58:39;4.80;57.20
45233;DHT22;30969;51.052;17.056;2022-11-20T15:03:43;4.70;57.30
45233;DHT22;30969;51.052;17.056;2022-11-20T15:08:51;4.60;57.50
45233;DHT22;30969;51.052;17.056;2022-11-20T15:13:56;4.50;57.50
45233;DHT22;30969;51.052;17.056;2022-11-20T15:19:15;4.50;57.90
45233;DHT22;30969;51.052;17.056;2022-11-20T15:24:20;4.30;58.00
45233;DHT22;30969;51.052;17.056;2022-11-20T15:29:25;4.30;58.10
45233;DHT22;30969;51.052;17.056;2022-11-20T15:34:29;4.20;58.20
45233;DHT22;30969;51.052;17.056;2022-11-20T15:39:32;4.10;58.40
45233;DHT22;30969;51.052;17.056;2022-11-20T15:44:37;4.00;58.70
45233;DHT22;30969;51.052;17.056;2022-11-20T15:49:41;3.90;59.20
45233;DHT22;30969;51.052;17.056;2022-11-20T15:54:44;3.80;59.50
45233;DHT22;30969;51.052;17.056;2022-11-20T15:59:49;3.80;59.80
45233;DHT22;30969;51.052;17.056;2022-11-20T16:04:52;3.80;60.00
45233;DHT22;30969;51.052;17.056;2022-11-20T16:09:56;3.80;60.00
45233;DHT22;30969;51.052;17.056;2022-11-20T16:15:00;3.70;60.10
45233;DHT22;30969;51.052;17.056;2022-11-20T16:20:30;3.70;60.10
45233;DHT22;30969;51.052;17.056;2022-11-20T16:25:33;3.70;60.10
45233;DHT22;30969;51.052;17.056;2022-11-20T16:30:39;3.60;60.20
45233;DHT22;30969;51.052;17.056;2022-11-20T16:35:43;3.60;60.30
45233;DHT22;30969;51.052;17.056;2022-11-20T16:40:46;3.60;60.50
45233;DHT22;30969;51.052;17.056;2022-11-20T16:45:51;3.50;60.70
45233;DHT22;30969;51.052;17.056;2022-11-20T16:50:55;3.50;60.80
45233;DHT22;30969;51.052;17.056;2022-11-20T16:56:08;3.50;60.90
45233;DHT22;30969;51.052;17.056;2022-11-20T17:01:14;3.40;61.00
45233;DHT22;30969;51.052;17.056;2022-11-20T17:06:20;3.40;61.10
45233;DHT22;30969;51.052;17.056;2022-11-20T17:11:24;3.30;61.80
45233;DHT22;30969;51.052;17.056;2022-11-20T17:16:33;2.60;63.20
45233;DHT22;30969;51.052;17.056;2022-11-20T17:21:37;1.70;66.20
45233;DHT22;30969;51.052;17.056;2022-11-20T17:26:43;1.10;68.80
45233;DHT22;30969;51.052;17.056;2022-11-20T17:31:53;0.70;70.90
45233;DHT22;30969;51.052;17.056;2022-11-20T17:36:56;0.40;72.50
45233;DHT22;30969;51.052;17.056;2022-11-20T17:42:00;0.20;73.70
45233;DHT22;30969;51.052;17.056;2022-11-20T17:47:23;0.10;75.10
45233;DHT22;30969;51.052;17.056;2022-11-20T17:52:26;0.10;75.80
45233;DHT22;30969;51.052;17.056;2022-11-20T17:57:30;0.00;75.90
45233;DHT22;30969;51.052;17.056;2022-11-20T18:02:52;-0.10;75.90
45233;DHT22;30969;51.052;17.056;2022-11-20T18:07:56;-0.30;76.40
45233;DHT22;30969;51.052;17.056;2022-11-20T18:13:00;-0.30;77.30
45233;DHT22;30969;51.052;17.056;2022-11-20T18:18:05;-0.40;77.30
45233;DHT22;30969;51.052;17.056;2022-11-20T18:23:08;-0.50;77.90
45233;DHT22;30969;51.052;17.056;2022-11-20T18:28:12;-0.70;78.30
45233;DHT22;30969;51.052;17.056;2022-11-20T18:33:17;-0.80;78.30
45233;DHT22;30969;51.052;17.056;2022-11-20T18:38:26;-0.90;79.10
45233;DHT22;30969;51.052;17.056;2022-11-20T18:43:30;-0.90;78.90
45233;DHT22;30969;51.052;17.056;2022-11-20T18:48:52;-0.90;78.50
45233;DHT22;30969;51.052;17.056;2022-11-20T18:53:56;-0.90;78.50
45233;DHT22;30969;51.052;17.056;2022-11-20T18:59:01;-0.60;78.50
45233;DHT22;30969;51.052;17.056;2022-11-20T19:04:07;-0.30;77.20
45233;DHT22;30969;51.052;17.056;2022-11-20T19:09:12;0.00;76.10
45233;DHT22;30969;51.052;17.056;2022-11-20T19:14:16;0.20;75.10
45233;DHT22;30969;51.052;17.056;2022-11-20T19:19:20;0.40;74.50
45233;DHT22;30969;51.052;17.056;2022-11-20T19:24:27;0.50;74.00
45233;DHT22;30969;51.052;17.056;2022-11-20T19:29:31;0.70;73.70
45233;DHT22;30969;51.052;17.056;2022-11-20T19:34:35;0.80;73.40
45233;DHT22;30969;51.052;17.056;2022-11-20T19:39:39;0.90;73.10
45233;DHT22;30969;51.052;17.056;2022-11-20T19:44:43;1.10;73.00
45233;DHT22;30969;51.052;17.056;2022-11-20T19:49:48;1.20;72.90
45233;DHT22;30969;51.052;17.056;2022-11-20T19:54:52;1.30;72.70
45233;DHT22;30969;51.052;17.056;2022-11-20T19:59:56;1.40;72.70
45233;DHT22;30969;51.052;17.056;2022-11-20T20:05:00;1.40;72.50
45233;DHT22;30969;51.052;17.056;2022-11-20T20:10:05;1.50;72.40
45233;DHT22;30969;51.052;17.056;2022-11-20T20:15:09;1.60;72.20
45233;DHT22;30969;51.052;17.056;2022-11-20T20:20:14;1.60;71.80
45233;DHT22;30969;51.052;17.056;2022-11-20T20:25:18;1.70;71.60
45233;DHT22;30969;51.052;17.056;2022-11-20T20:30:21;1.70;71.40
45233;DHT22;30969;51.052;17.056;2022-11-20T20:35:26;1.80;71.10
45233;DHT22;30969;51.052;17.056;2022-11-20T20:40:30;1.80;71.10
45233;DHT22;30969;51.052;17.056;2022-11-20T20:45:34;1.80;71.00
45233;DHT22;30969;51.052;17.056;2022-11-20T20:50:39;1.90;70.90
45233;DHT22;30969;51.052;17.056;2022-11-20T20:55:52;1.80;70.70
45233;DHT22;30969;51.052;17.056;2022-11-20T21:00:59;1.90;70.70
45233;DHT22;30969;51.052;17.056;2022-11-20T21:06:05;1.90;71.60
45233;DHT22;30969;51.052;17.056;2022-11-20T21:11:10;1.90;70.40
45233;DHT22;30969;51.052;17.056;2022-11-20T21:16:16;1.90;70.50
45233;DHT22;30969;51.052;17.056;2022-11-20T21:21:24;1.80;70.30
45233;DHT22;30969;51.052;17.056;2022-11-20T21:26:45;1.80;70.20
45233;DHT22;30969;51.052;17.056;2022-11-20T21:31:51;1.70;70.20
45233;DHT22;30969;51.052;17.056;2022-11-20T21:36:56;1.70;70.40
45233;DHT22;30969;51.052;17.056;2022-11-20T21:42:00;1.70;70.20
45233;DHT22;30969;51.052;17.056;2022-11-20T21:47:03;1.70;70.20
45233;DHT22;30969;51.052;17.056;2022-11-20T21:52:08;1.60;71.10
45233;DHT22;30969;51.052;17.056;2022-11-20T21:57:12;1.60;70.10
45233;DHT22;30969;51.052;17.056;2022-11-20T22:02:15;1.60;70.00
45233;DHT22;30969;51.052;17.056;2022-11-20T22:07:21;1.50;69.90
45233;DHT22;30969;51.052;17.056;2022-11-20T22:12:25;1.50;69.90
45233;DHT22;30969;51.052;17.056;2022-11-20T22:17:28;1.50;70.10
45233;DHT22;30969;51.052;17.056;2022-11-20T22:22:51;1.50;70.10
45233;DHT22;30969;51.052;17.056;2022-11-20T22:27:54;1.40;70.10
45233;DHT22;30969;51.052;17.056;2022-11-20T22:32:58;1.40;70.20
45233;DHT22;30969;51.052;17.056;2022-11-20T22:38:02;1.40;70.50
45233;DHT22;30969;51.052;17.056;2022-11-20T22:43:06;1.30;70.50
45233;DHT22;30969;51.052;17.056;2022-11-20T22:48:10;1.30;70.20
45233;DHT22;30969;51.052;17.056;2022-11-20T22:53:15;1.30;70.20
45233;DHT22;30969;51.052;17.056;2022-11-20T22:58:18;1.30;70.10
45233;DHT22;30969;51.052;17.056;2022-11-20T23:03:22;1.30;70.00
45233;DHT22;30969;51.052;17.056;2022-11-20T23:08:27;1.30;69.90
45233;DHT22;30969;51.052;17.056;2022-11-20T23:13:31;1.30;69.80
45233;DHT22;30969;51.052;17.056;2022-11-20T23:18:35;1.20;69.60
45233;DHT22;30969;51.052;17.056;2022-11-20T23:23:41;1.20;69.50
45233;DHT22;30969;51.052;17.056;2022-11-20T23:28:45;1.20;69.40
45233;DHT22;30969;51.052;17.056;2022-11-20T23:33:49;1.20;69.30
45233;DHT22;30969;51.052;17.056;2022-11-20T23:38:54;1.10;69.10
45233;DHT22;30969;51.052;17.056;2022-11-20T23:43:58;1.10;69.10
45233;DHT22;30969;51.052;17.056;2022-11-20T23:49:01;1.10;69.10
45233;DHT22;30969;51.052;17.056;2022-11-20T23:54:06;1.00;69.00
45233;DHT22;30969;51.052;17.056;2022-11-20T23:59:09;1.00;69.00
